Terminal Aerodrome Forecast
Issued by NWS

Home | Current Version | Previous Version | Text Only | Print | Product List | Glossary On
Versions: 1 2 3 4 5 6 7 8 9 10 11 12 13 14 15 16 17 18 19 20 21 22 23 24 25 26 27 28
000
FTUS43 KGRR 011140
TAFJXN
TAF
KJXN 011140Z 0112/0212 08005KT 5SM -RA BR OVC004
     FM011700 14007KT 5SM BR VCTS OVC035CB
     FM020000 00000KT 5SM BR OVC070
     FM020600 19001KT P6SM OVC050
     FM020800 00000KT 4SM BR BKN050
     FM021100 00000KT 1 1/2SM BR BKN001=

USA.gov is the U.S. government's official web portal to all federal, state and local government web resources and services.